Time;durP1;ratioP1;P1;durP2;ratioP2;P2;SDS_P1;SDS_P2;PMS_P1;PMS_P2;Temp;Humidity;BMP_temperature;BMP_pressure;BME280_temperature;BME280_humidity;BME280_pressure;Samples;Min_cycle;Max_cycle;Signal;HPM_P1;HPM_P2
2023/06/18 00:02:04;;;;;;;17.00;15.50;;;;;;;22.28;68.97;99850.27;109840;1273;138795;-74
2023/06/18 00:04:32;;;;;;;13.30;12.20;;;;;;;22.36;69.63;99851.79;109855;1276;138553;-74
2023/06/18 00:07:00;;;;;;;20.10;14.10;;;;;;;22.46;70.09;99848.33;109904;1266;22064;-72
2023/06/18 00:09:27;;;;;;;10.60;9.60;;;;;;;22.53;69.38;99847.52;109926;1273;138704;-73
2023/06/18 00:11:55;;;;;;;17.70;16.00;;;;;;;22.54;68.95;99846.60;109975;1274;22137;-73
2023/06/18 00:14:22;;;;;;;16.20;14.90;;;;;;;22.52;68.59;99847.32;109899;1280;139024;-72
2023/06/18 00:16:53;;;;;;;10.30;9.40;;;;;;;22.48;69.27;99845.92;109814;1275;138162;-73
2023/06/18 00:19:20;;;;;;;10.50;9.70;;;;;;;22.46;68.16;99845.55;110013;1273;23063;-71
2023/06/18 00:21:48;;;;;;;10.90;9.40;;;;;;;22.39;68.14;99843.80;109831;1263;137872;-70
2023/06/18 00:24:15;;;;;;;12.60;11.50;;;;;;;22.34;68.80;99845.83;109894;1274;138542;-72
2023/06/18 00:26:43;;;;;;;10.20;9.00;;;;;;;22.32;69.18;99848.72;109953;1276;22089;-73
2023/06/18 00:29:10;;;;;;;11.00;9.50;;;;;;;22.28;69.93;99846.77;109871;1280;138169;-74
2023/06/18 00:31:38;;;;;;;12.50;11.20;;;;;;;22.23;69.77;99844.66;109945;1277;23075;-72
2023/06/18 00:34:06;;;;;;;9.80;8.80;;;;;;;22.21;70.83;99846.23;109860;1277;137890;-73
2023/06/18 00:36:43;;;;;;;13.00;11.60;;;;;;;22.22;70.92;99842.75;109805;1279;137754;-71
2023/06/18 00:39:10;;;;;;;;;;;;;;;22.22;71.90;99840.48;110013;1273;23204;-73
2023/06/18 00:41:38;;;;;;;9.30;8.40;;;;;;;22.23;72.74;99842.26;109846;1274;124756;-72
2023/06/18 00:44:08;;;;;;;13.50;12.40;;;;;;;22.23;71.90;99839.55;109879;1280;139184;-72
2023/06/18 00:46:36;;;;;;;13.30;12.10;;;;;;;22.24;73.33;99838.85;110040;1273;22222;-72
2023/06/18 00:49:04;;;;;;;13.10;12.10;;;;;;;22.30;72.98;99840.46;109857;1274;137640;-69
2023/06/18 00:51:31;;;;;;;12.00;11.20;;;;;;;22.34;73.31;99840.40;109975;1273;22229;-73
2023/06/18 00:53:59;;;;;;;13.70;12.50;;;;;;;22.33;73.05;99843.12;109886;1273;138233;-72
2023/06/18 00:56:29;;;;;;;11.40;10.40;;;;;;;22.32;73.97;99840.79;109914;1276;139559;-73
2023/06/18 00:58:57;;;;;;;10.00;8.90;;;;;;;22.32;73.72;99844.48;109849;1277;22769;-73
2023/06/18 01:01:25;;;;;;;11.30;10.20;;;;;;;22.29;72.59;99843.24;109769;1261;137657;-73
2023/06/18 01:03:56;;;;;;;9.60;8.80;;;;;;;22.22;72.29;99841.63;109951;1280;22229;-73
2023/06/18 01:06:26;;;;;;;12.30;10.90;;;;;;;22.23;71.79;99843.30;109844;1263;137553;-73
2023/06/18 01:08:55;;;;;;;10.50;9.00;;;;;;;22.16;72.84;99844.30;109852;1280;139060;-72
2023/06/18 01:11:24;;;;;;;10.60;9.60;;;;;;;22.04;74.03;99846.61;110002;1273;22128;-73
2023/06/18 01:13:52;;;;;;;12.90;11.90;;;;;;;22.01;75.48;99845.06;109901;1280;137995;-74
2023/06/18 01:16:24;;;;;;;10.40;9.50;;;;;;;22.08;76.22;99832.98;109947;1257;138611;-72
2023/06/18 01:18:53;;;;;;;11.30;10.50;;;;;;;22.23;75.21;99845.37;109941;1273;22380;-69
2023/06/18 01:21:26;;;;;;;11.80;11.00;;;;;;;22.30;75.92;99845.40;109936;1277;139119;-73
2023/06/18 01:24:00;;;;;;;8.50;7.80;;;;;;;22.55;74.66;99848.61;110231;1280;22268;-73
2023/06/18 01:26:30;;;;;;;10.30;9.30;;;;;;;22.57;71.79;99853.27;110067;1275;21683;-71
2023/06/18 01:29:00;;;;;;;12.40;10.00;;;;;;;22.34;73.43;99853.14;109926;1278;140287;-73
2023/06/18 01:31:36;;;;;;;9.90;9.10;;;;;;;22.16;74.16;99854.89;109998;1258;22120;-69
2023/06/18 01:34:04;;;;;;;10.20;9.20;;;;;;;22.05;74.63;99853.39;109850;1274;138281;-73
2023/06/18 01:36:47;;;;;;;10.80;9.90;;;;;;;21.96;74.19;99855.22;109766;1272;139309;-74
2023/06/18 01:39:25;;;;;;;10.20;9.40;;;;;;;21.87;76.43;99857.23;109928;1275;22230;-74
2023/06/18 01:42:00;;;;;;;10.60;9.80;;;;;;;21.87;76.72;99859.09;109899;1273;138919;-72
2023/06/18 01:44:30;;;;;;;9.80;9.00;;;;;;;21.91;77.54;99860.82;109874;1273;137784;-76
2023/06/18 01:46:58;;;;;;;11.80;9.90;;;;;;;21.94;76.33;99859.35;109980;1274;22864;-74
2023/06/18 01:49:26;;;;;;;10.30;9.20;;;;;;;21.93;76.46;99860.92;109799;1273;138295;-74
2023/06/18 01:52:00;;;;;;;10.50;9.60;;;;;;;21.94;75.86;99864.23;110004;1280;22213;-73
2023/06/18 01:54:28;;;;;;;9.70;8.70;;;;;;;21.87;75.71;99862.52;110002;1273;22188;-74
2023/06/18 01:56:56;;;;;;;10.10;9.30;;;;;;;21.78;76.21;99864.39;109939;1258;137641;-74
2023/06/18 01:59:25;;;;;;;10.50;9.60;;;;;;;21.73;77.49;99863.47;110009;1279;22725;-74
2023/06/18 02:01:53;;;;;;;10.40;9.20;;;;;;;21.74;77.47;99861.61;109885;1280;139009;-73
2023/06/18 02:04:20;;;;;;;9.70;9.00;;;;;;;21.70;76.58;99865.54;109924;1273;138290;-70
2023/06/18 02:06:47;;;;;;;9.80;9.00;;;;;;;21.60;77.01;99864.95;109984;1273;22223;-73
2023/06/18 02:09:15;;;;;;;10.00;9.00;;;;;;;21.56;78.02;99868.36;109910;1276;139187;-74
2023/06/18 02:11:43;;;;;;;9.70;9.00;;;;;;;21.70;78.53;99870.25;109965;1279;22207;-73
2023/06/18 02:14:10;;;;;;;9.90;9.20;;;;;;;21.84;78.68;99870.48;109901;1275;139813;-74
2023/06/18 02:16:37;;;;;;;10.20;9.10;;;;;;;21.85;78.29;99870.59;109904;1275;138323;-74
2023/06/18 02:19:06;;;;;;;10.30;9.40;;;;;;;21.83;77.25;99870.71;110034;1277;22249;-73
2023/06/18 02:21:34;;;;;;;10.00;9.20;;;;;;;21.77;77.40;99872.14;109885;1279;138924;-75
2023/06/18 02:24:01;;;;;;;9.70;8.50;;;;;;;21.70;78.04;99875.73;109897;1261;22261;-74
2023/06/18 02:26:29;;;;;;;10.70;9.60;;;;;;;21.83;77.13;99876.84;109988;1273;22117;-74
2023/06/18 02:28:56;;;;;;;9.00;8.40;;;;;;;21.85;76.46;99882.97;109910;1273;138089;-75
2023/06/18 02:31:24;;;;;;;10.40;9.60;;;;;;;21.80;76.62;99883.69;110012;1274;22236;-73
2023/06/18 02:33:51;;;;;;;9.00;8.20;;;;;;;21.74;76.87;99885.21;109872;1260;139024;-68
2023/06/18 02:36:19;;;;;;;9.90;9.00;;;;;;;21.71;77.26;99887.28;109930;1273;139667;-74
2023/06/18 02:38:47;;;;;;;9.90;9.10;;;;;;;21.69;77.22;99891.23;110059;1274;22209;-71
2023/06/18 02:41:14;;;;;;;9.90;8.60;;;;;;;21.68;77.32;99892.77;109910;1264;138300;-70
2023/06/18 02:43:42;;;;;;;10.80;9.30;;;;;;;21.52;78.23;99891.52;110187;1263;22238;-71
2023/06/18 02:46:10;;;;;;;10.00;8.90;;;;;;;21.43;79.32;99892.27;110054;1275;137700;-73
2023/06/18 02:48:38;;;;;;;8.60;7.90;;;;;;;21.63;78.78;99890.38;110013;1279;138910;-72
2023/06/18 02:51:05;;;;;;;9.20;8.50;;;;;;;21.65;78.77;99892.05;110159;1279;22183;-72
2023/06/18 02:53:33;;;;;;;10.10;9.20;;;;;;;21.67;78.69;99889.40;109897;1269;139041;-74
2023/06/18 02:56:01;;;;;;;10.30;9.10;;;;;;;21.52;79.13;99894.88;109984;1261;22363;-74
2023/06/18 02:58:28;;;;;;;9.20;8.40;;;;;;;21.38;79.78;99894.15;110065;1272;22332;-74
2023/06/18 03:01:00;;;;;;;10.40;9.40;;;;;;;21.33;80.48;99895.24;109961;1278;139155;-74
2023/06/18 03:03:28;;;;;;;10.00;9.00;;;;;;;21.31;80.80;99893.60;110008;1273;22123;-73
2023/06/18 03:05:57;;;;;;;10.10;9.20;;;;;;;21.30;80.97;99895.18;109859;1273;137696;-69
2023/06/18 03:08:25;;;;;;;10.40;9.10;;;;;;;21.34;81.07;99896.05;109911;1274;140007;-74
2023/06/18 03:10:54;;;;;;;9.20;8.50;;;;;;;21.46;80.63;99891.02;109926;1273;22304;-73
2023/06/18 03:13:21;;;;;;;10.00;8.00;;;;;;;21.42;81.16;99887.75;109886;1261;139276;-74
2023/06/18 03:15:51;;;;;;;10.20;9.20;;;;;;;21.44;81.19;99890.27;109867;1272;22327;-75
2023/06/18 03:18:20;;;;;;;10.00;9.10;;;;;;;21.48;81.17;99894.34;109956;1278;138538;-73
2023/06/18 03:20:47;;;;;;;8.90;8.20;;;;;;;21.53;80.89;99896.63;109865;1274;138450;-74
2023/06/18 03:23:14;;;;;;;10.30;9.30;;;;;;;21.58;81.06;99900.52;109975;1261;22846;-73
2023/06/18 03:25:44;;;;;;;9.70;9.00;;;;;;;21.61;81.49;99903.17;109878;1274;137987;-74
2023/06/18 03:28:18;;;;;;;10.60;9.40;;;;;;;21.68;81.83;99899.98;109920;1274;138757;-74
2023/06/18 03:30:46;;;;;;;9.50;8.80;;;;;;;21.78;81.44;99902.89;110012;1273;22203;-75
2023/06/18 03:33:13;;;;;;;9.70;8.90;;;;;;;21.82;81.24;99905.55;110029;1272;138345;-74
2023/06/18 03:35:43;;;;;;;9.60;8.40;;;;;;;21.84;80.80;99907.92;109984;1276;22222;-74
2023/06/18 03:38:11;;;;;;;12.40;10.20;;;;;;;21.83;81.32;99909.02;109875;1272;139532;-75
2023/06/18 03:40:40;;;;;;;8.00;7.40;;;;;;;21.86;81.10;99905.15;109881;1275;139358;-74
2023/06/18 03:43:08;;;;;;;11.00;9.80;;;;;;;21.93;80.71;99909.01;109947;1279;22391;-73
2023/06/18 03:45:35;;;;;;;9.10;8.20;;;;;;;22.05;79.92;99911.04;109891;1278;139220;-73
2023/06/18 03:48:03;;;;;;;14.10;12.80;;;;;;;22.09;79.54;99913.48;109970;1279;22247;-74
2023/06/18 03:50:37;;;;;;;10.20;9.40;;;;;;;22.24;78.92;99916.39;109939;1273;23188;-73
2023/06/18 03:53:04;;;;;;;9.80;9.10;;;;;;;22.30;77.97;99915.45;109892;1274;137539;-73
2023/06/18 03:55:35;;;;;;;10.50;9.30;;;;;;;22.33;75.97;99916.59;109999;1261;22226;-70
2023/06/18 03:58:03;;;;;;;9.80;9.10;;;;;;;22.37;75.09;99917.55;109919;1280;137656;-72
2023/06/18 04:00:31;;;;;;;9.10;8.20;;;;;;;22.33;75.61;99920.44;109895;1272;138252;-74
2023/06/18 04:02:58;;;;;;;9.60;8.90;;;;;;;22.25;76.94;99919.03;109861;1258;22356;-71
2023/06/18 04:05:25;;;;;;;10.80;9.70;;;;;;;22.44;75.64;99918.45;109805;1273;139789;-74
2023/06/18 04:07:53;;;;;;;9.80;8.70;;;;;;;22.53;74.97;99911.63;109998;1272;22333;-74
2023/06/18 04:10:20;;;;;;;9.50;8.70;;;;;;;22.67;73.59;99922.15;109756;1274;138297;-75
2023/06/18 04:12:48;;;;;;;11.10;8.60;;;;;;;22.75;72.23;99925.38;109807;1261;139314;-73
2023/06/18 04:15:16;;;;;;;9.00;8.20;;;;;;;22.81;70.95;99925.67;109929;1261;22142;-70
2023/06/18 04:17:44;;;;;;;9.40;8.70;;;;;;;22.88;70.54;99922.53;109805;1273;137358;-73
2023/06/18 04:20:14;;;;;;;9.70;8.80;;;;;;;22.94;69.04;99926.14;109817;1274;139009;-73
2023/06/18 04:22:42;;;;;;;9.80;8.70;;;;;;;23.02;65.69;99927.08;109864;1275;22411;-73
2023/06/18 04:25:10;;;;;;;9.10;8.30;;;;;;;23.09;65.38;99931.35;109794;1275;138422;-72
2023/06/18 04:27:39;;;;;;;10.40;9.60;;;;;;;23.16;66.25;99930.45;109842;1272;23069;-68
2023/06/18 04:30:07;;;;;;;10.50;9.50;;;;;;;23.22;66.60;99928.61;109828;1273;141480;-74
2023/06/18 04:32:35;;;;;;;8.90;8.10;;;;;;;23.31;65.77;99931.70;109764;1273;139725;-73
2023/06/18 04:35:03;;;;;;;14.30;8.60;;;;;;;23.40;65.54;99934.02;109877;1277;22377;-73
2023/06/18 04:37:31;;;;;;;9.60;8.80;;;;;;;23.50;65.41;99932.03;109755;1273;138831;-74
2023/06/18 04:39:59;;;;;;;10.60;8.70;;;;;;;23.61;63.74;99932.77;109824;1273;22406;-73
2023/06/18 04:44:26;;;;;;;8.90;8.30;;;;;;;23.69;60.24;99934.11;103759;1301;544808;-75
2023/06/18 17:01:36;;;;;;;2.80;2.70;;;;;;;28.13;28.69;99947.19;103260;1300;545192;-72
2023/06/18 17:04:06;;;;;;;4.00;3.70;;;;;;;28.13;28.56;99948.60;106523;1272;137317;-74
2023/06/18 17:06:33;;;;;;;3.80;3.50;;;;;;;28.12;28.59;99949.19;106493;1266;22539;-75
2023/06/18 17:09:01;;;;;;;4.40;4.10;;;;;;;28.11;28.95;99957.52;106224;1272;138683;-76
2023/06/18 17:11:29;;;;;;;4.60;3.90;;;;;;;28.09;28.98;99959.27;106388;1273;25322;-60
2023/06/18 17:13:56;;;;;;;3.80;3.50;;;;;;;27.97;29.38;99942.89;105879;1272;242239;-59
2023/06/18 17:16:23;;;;;;;4.20;3.80;;;;;;;27.88;29.71;99932.06;106322;1272;138969;-62
2023/06/18 17:18:51;;;;;;;5.00;3.50;;;;;;;28.07;29.74;99950.80;106320;1272;22531;-61
2023/06/18 17:21:20;;;;;;;4.00;3.30;;;;;;;28.11;29.80;99955.33;106479;1270;137077;-61
2023/06/18 17:23:49;;;;;;;3.90;3.60;;;;;;;28.13;29.84;99955.24;106500;1272;23042;-61
2023/06/18 17:26:16;;;;;;;3.60;3.50;;;;;;;28.10;30.12;99957.84;106473;1270;137649;-62
2023/06/18 17:28:44;;;;;;;3.70;3.40;;;;;;;28.06;30.21;99958.20;106266;1270;137574;-59
2023/06/18 17:31:12;;;;;;;4.30;4.00;;;;;;;27.97;30.12;99950.16;106641;1269;23865;-58
2023/06/18 17:33:40;;;;;;;4.00;3.70;;;;;;;27.99;30.58;99957.84;106373;1268;137889;-61
2023/06/18 17:36:07;;;;;;;5.00;3.60;;;;;;;27.96;30.67;99956.35;110016;1274;138408;-62
2023/06/18 17:38:35;;;;;;;5.30;4.00;;;;;;;27.93;30.89;99954.82;110104;1271;22304;-59
2023/06/18 17:41:02;;;;;;;5.80;4.20;;;;;;;27.91;31.13;99958.70;110049;1270;137431;-60
2023/06/18 17:43:29;;;;;;;4.50;4.30;;;;;;;27.88;31.24;99955.77;110265;1270;22358;-60
2023/06/18 17:46:20;;;;;;;5.70;3.80;;;;;;;27.84;31.39;99956.84;110175;1270;137043;-60
2023/06/18 17:48:48;;;;;;;4.00;3.70;;;;;;;27.82;31.42;99961.66;110290;1269;138478;-61
2023/06/18 17:51:16;;;;;;;5.10;4.20;;;;;;;27.73;31.55;99953.51;110347;1270;22329;-62
2023/06/18 17:53:46;;;;;;;4.20;3.90;;;;;;;27.77;31.57;99963.46;110153;1269;139491;-60
2023/06/18 17:56:14;;;;;;;5.40;3.90;;;;;;;27.72;31.60;99964.20;110141;1273;137407;-61
2023/06/18 17:58:41;;;;;;;4.90;3.70;;;;;;;27.72;31.83;99971.10;110214;1270;22375;-61
2023/06/18 18:01:09;;;;;;;4.10;3.90;;;;;;;27.63;31.95;99972.87;110140;1269;137613;-60
2023/06/18 18:03:36;;;;;;;5.10;3.70;;;;;;;27.57;31.97;99972.13;110329;1271;22300;-60
2023/06/18 18:06:04;;;;;;;3.80;3.60;;;;;;;27.54;32.05;99975.10;110134;1269;137139;-61
2023/06/18 18:08:31;;;;;;;3.10;3.00;;;;;;;27.36;32.20;99983.14;110202;1260;139009;-60
2023/06/18 18:10:58;;;;;;;5.40;3.60;;;;;;;27.30;32.31;99985.53;110177;1270;23070;-62
2023/06/18 18:13:29;;;;;;;4.90;4.30;;;;;;;27.28;32.31;99989.66;110089;1266;138870;-64
2023/06/18 18:15:59;;;;;;;6.20;4.60;;;;;;;27.24;32.38;99994.20;110347;1270;22330;-61
2023/06/18 18:18:27;;;;;;;4.90;4.40;;;;;;;27.22;34.21;99997.05;110153;1272;137352;-61
2023/06/18 18:20:54;;;;;;;6.30;4.90;;;;;;;27.09;34.55;99998.38;110100;1273;138076;-60
2023/06/18 18:23:22;;;;;;;5.00;4.70;;;;;;;26.94;36.46;100001.38;110170;1270;22309;-61
2023/06/18 18:25:49;;;;;;;7.10;5.00;;;;;;;26.79;36.52;100005.14;110114;1269;137059;-60
2023/06/18 18:28:18;;;;;;;4.80;4.40;;;;;;;26.60;37.43;100007.63;109959;1269;138161;-61
2023/06/18 18:30:45;;;;;;;6.20;5.40;;;;;;;26.48;36.68;100009.39;110319;1269;22368;-62
2023/06/18 18:33:13;;;;;;;5.50;5.00;;;;;;;26.40;37.59;100010.96;110082;1269;137751;-61
2023/06/18 18:35:40;;;;;;;6.20;5.70;;;;;;;26.25;38.17;100003.86;110170;1260;22242;-61
2023/06/18 18:38:07;;;;;;;5.10;4.70;;;;;;;26.15;39.24;100013.81;110020;1271;137756;-62
2023/06/18 18:40:35;;;;;;;6.20;5.00;;;;;;;26.07;38.91;100018.55;110083;1269;138671;-60
2023/06/18 18:43:02;;;;;;;6.40;5.70;;;;;;;26.00;38.99;100017.09;110261;1272;22801;-60
2023/06/18 18:45:29;;;;;;;5.10;4.80;;;;;;;25.88;40.37;100008.77;110038;1270;137674;-63
2023/06/18 18:47:57;;;;;;;5.30;4.90;;;;;;;25.84;39.52;100018.67;110153;1269;22404;-61
2023/06/18 18:50:24;;;;;;;6.20;5.70;;;;;;;25.80;39.19;100017.27;109989;1269;136994;-61
2023/06/18 18:52:52;;;;;;;4.60;4.30;;;;;;;25.78;38.43;100018.84;109904;1270;138843;-60
2023/06/18 18:55:20;;;;;;;13.10;6.00;;;;;;;25.78;38.26;100020.20;110352;1270;22308;-66
2023/06/18 18:57:47;;;;;;;6.00;5.50;;;;;;;25.77;40.94;100020.60;110054;1271;137643;-74
2023/06/18 19:00:15;;;;;;;6.50;6.00;;;;;;;25.69;39.21;100021.33;110057;1274;137552;-75
2023/06/18 19:02:42;;;;;;;6.00;5.40;;;;;;;25.61;39.96;100023.04;110112;1276;22144;-73
2023/06/18 19:05:10;;;;;;;5.90;5.50;;;;;;;25.54;39.19;100026.04;110052;1269;138299;-74
2023/06/18 19:07:37;;;;;;;6.80;6.20;;;;;;;25.52;39.16;100025.52;110084;1271;22341;-76
2023/06/18 19:10:05;;;;;;;6.50;5.90;;;;;;;25.48;40.97;100022.73;110074;1269;139429;-74
2023/06/18 19:12:33;;;;;;;6.60;6.10;;;;;;;25.39;43.69;100024.56;109936;1270;138933;-73
2023/06/18 19:15:02;;;;;;;5.90;5.50;;;;;;;25.16;43.49;100024.52;110187;1270;22126;-73
2023/06/18 19:17:29;;;;;;;6.40;5.80;;;;;;;24.99;40.83;100023.77;109952;1269;139244;-73
2023/06/18 19:19:57;;;;;;;6.30;5.70;;;;;;;25.03;38.69;100025.67;110013;1272;22183;-73
2023/06/18 19:22:29;;;;;;;5.70;5.00;;;;;;;25.16;37.75;100021.96;110057;1271;138156;-74
2023/06/18 19:24:58;;;;;;;5.50;5.20;;;;;;;25.35;37.11;100020.95;110115;1271;139090;-73
2023/06/18 19:27:27;;;;;;;5.90;5.50;;;;;;;25.50;37.26;100014.89;110332;1267;22319;-77
2023/06/18 19:29:54;;;;;;;5.70;5.20;;;;;;;25.57;36.64;100012.50;110169;1269;138794;-76
2023/06/18 19:32:21;;;;;;;6.50;5.50;;;;;;;25.62;36.14;100009.24;110355;1276;139049;-78
2023/06/18 19:34:50;;;;;;;5.40;5.00;;;;;;;25.67;35.62;100010.65;110341;1270;22344;-76
2023/06/18 19:37:18;;;;;;;6.60;6.00;;;;;;;25.73;38.01;100008.27;110174;1276;137141;-73
2023/06/18 19:39:47;;;;;;;5.90;5.40;;;;;;;25.68;38.80;100005.89;110224;1272;23473;-72
2023/06/18 19:42:18;;;;;;;5.70;5.20;;;;;;;25.57;36.41;100008.63;110019;1269;137977;-77
2023/06/18 19:44:46;;;;;;;5.70;5.30;;;;;;;25.56;35.69;100010.83;110169;1270;138194;-80
2023/06/18 19:47:13;;;;;;;5.60;5.20;;;;;;;25.61;35.74;100011.40;110405;1273;22211;-76
2023/06/18 19:49:40;;;;;;;5.70;5.20;;;;;;;25.67;35.70;100012.58;110254;1270;137692;-76
2023/06/18 19:52:07;;;;;;;7.00;5.70;;;;;;;25.71;35.89;100010.17;110188;1271;137567;-74
2023/06/18 19:54:37;;;;;;;4.60;4.30;;;;;;;25.71;35.84;100015.08;110351;1276;22169;-75
2023/06/18 19:57:05;;;;;;;5.60;5.10;;;;;;;25.72;35.96;100017.18;110191;1270;137658;-73
2023/06/18 19:59:33;;;;;;;6.50;5.90;;;;;;;25.72;36.13;100018.81;110276;1275;22186;-74
2023/06/18 20:02:00;;;;;;;5.10;4.80;;;;;;;25.73;35.91;100022.63;110324;1257;137492;-74
2023/06/18 20:04:27;;;;;;;5.70;5.10;;;;;;;25.77;35.61;100024.09;110170;1276;139089;-75
2023/06/18 20:06:55;;;;;;;6.00;5.20;;;;;;;25.80;35.51;100023.38;110374;1276;22117;-77
2023/06/18 20:09:22;;;;;;;6.20;5.40;;;;;;;25.83;35.45;100025.25;110242;1273;138279;-70
2023/06/18 20:11:49;;;;;;;5.40;4.90;;;;;;;25.85;35.59;100029.64;110400;1270;22763;-75
2023/06/18 20:14:17;;;;;;;6.00;5.70;;;;;;;25.85;35.75;100030.52;110195;1270;137619;-76
2023/06/18 20:16:44;;;;;;;6.00;5.60;;;;;;;25.84;36.05;100030.75;110297;1273;138107;-76
2023/06/18 20:19:11;;;;;;;6.70;6.20;;;;;;;25.80;35.95;100033.98;110329;1260;22146;-75
2023/06/18 20:21:39;;;;;;;5.70;5.30;;;;;;;25.76;35.86;100030.44;110262;1270;137396;-75
2023/06/18 20:24:06;;;;;;;7.50;6.30;;;;;;;25.71;36.06;100030.63;110223;1254;139828;-75
2023/06/18 20:26:33;;;;;;;7.70;7.00;;;;;;;25.67;36.48;100030.58;110291;1276;22142;-75
2023/06/18 20:29:01;;;;;;;8.60;7.60;;;;;;;25.62;38.01;100033.55;110209;1276;137855;-74
2023/06/18 20:31:28;;;;;;;8.20;7.40;;;;;;;25.53;39.19;100034.67;110229;1260;22237;-76
2023/06/18 20:33:57;;;;;;;9.10;8.20;;;;;;;25.38;41.88;100039.20;110200;1270;137852;-76
2023/06/18 20:36:25;;;;;;;10.60;9.20;;;;;;;25.14;41.94;100046.75;109935;1276;139394;-71
2023/06/18 20:38:52;;;;;;;9.40;8.70;;;;;;;24.93;40.64;100048.10;110337;1276;22224;-71
2023/06/18 20:41:20;;;;;;;9.20;8.30;;;;;;;24.84;41.07;100051.09;110263;1270;138749;-72
2023/06/18 20:43:47;;;;;;;9.70;8.80;;;;;;;24.78;40.47;100044.62;110358;1271;22354;-75
2023/06/18 20:46:15;;;;;;;10.40;9.30;;;;;;;24.73;40.42;100043.21;110241;1276;137763;-73
2023/06/18 20:48:42;;;;;;;10.10;9.30;;;;;;;24.69;40.49;100042.38;110243;1274;139666;-74
2023/06/18 20:51:13;;;;;;;15.60;9.60;;;;;;;24.65;40.40;100042.46;110342;1258;22131;-73
2023/06/18 20:53:40;;;;;;;13.30;10.10;;;;;;;24.66;40.62;100042.84;110253;1270;138145;-74
2023/06/18 20:56:08;;;;;;;11.80;10.70;;;;;;;24.72;40.95;100041.36;110254;1276;140299;-73
2023/06/18 20:58:36;;;;;;;12.20;11.00;;;;;;;24.75;41.02;100041.71;110307;1276;23171;-74
2023/06/18 21:01:04;;;;;;;11.10;10.00;;;;;;;24.75;40.86;100045.21;110152;1273;137845;-73
2023/06/18 21:03:33;;;;;;;10.30;9.40;;;;;;;24.74;40.42;100045.15;110191;1255;22225;-74
2023/06/18 21:06:00;;;;;;;9.50;8.70;;;;;;;24.74;40.51;100044.06;110138;1275;138113;-72
2023/06/18 21:08:28;;;;;;;10.90;9.70;;;;;;;24.75;40.41;100046.14;110169;1277;139384;-74
2023/06/18 21:10:55;;;;;;;10.60;9.70;;;;;;;24.78;40.32;100043.54;110385;1274;22207;-74
2023/06/18 21:13:23;;;;;;;9.20;8.40;;;;;;;24.78;40.30;100042.39;110285;1270;139959;-73
2023/06/18 21:15:50;;;;;;;9.40;8.50;;;;;;;24.70;40.33;100043.19;110343;1270;22442;-77
2023/06/18 21:18:18;;;;;;;9.40;8.60;;;;;;;24.76;40.06;100034.73;110248;1270;136578;-75
2023/06/18 21:20:46;;;;;;;8.20;7.70;;;;;;;24.80;39.96;100031.69;110216;1276;138773;-75
2023/06/18 21:23:13;;;;;;;9.50;8.60;;;;;;;24.83;40.09;100034.36;110320;1269;22771;-75
2023/06/18 21:25:41;;;;;;;9.70;8.70;;;;;;;24.83;40.19;100033.16;110174;1269;138582;-74
2023/06/18 21:28:08;;;;;;;8.90;8.10;;;;;;;24.82;40.49;100032.80;110240;1276;138629;-75
2023/06/18 21:30:36;;;;;;;8.80;8.00;;;;;;;24.81;40.54;100032.60;110367;1254;22362;-75
2023/06/18 21:33:03;;;;;;;8.90;8.20;;;;;;;24.81;40.66;100030.98;110206;1274;139188;-74
2023/06/18 21:35:30;;;;;;;7.70;7.00;;;;;;;24.80;40.85;100025.63;110316;1273;22231;-74
2023/06/18 21:37:58;;;;;;;9.00;8.10;;;;;;;24.79;41.11;100028.80;110305;1269;139008;-76
2023/06/18 21:40:25;;;;;;;12.20;9.10;;;;;;;24.77;41.49;100028.22;110194;1270;137723;-75
2023/06/18 21:42:52;;;;;;;8.50;7.80;;;;;;;24.72;42.80;100024.14;110308;1257;22385;-71
2023/06/18 21:45:20;;;;;;;7.50;7.00;;;;;;;24.60;42.19;100020.73;110268;1273;138573;-76
2023/06/18 21:47:47;;;;;;;10.50;9.70;;;;;;;24.55;42.41;100022.80;110333;1269;22413;-74
2023/06/18 21:50:15;;;;;;;9.20;8.50;;;;;;;24.54;42.61;100024.67;110232;1270;138821;-76
2023/06/18 21:52:42;;;;;;;8.60;7.90;;;;;;;24.51;42.56;100029.21;110200;1276;139243;-73
2023/06/18 21:55:10;;;;;;;7.50;7.00;;;;;;;24.44;42.70;100030.46;110331;1270;22099;-75
2023/06/18 21:57:38;;;;;;;10.30;9.40;;;;;;;24.48;42.77;100029.98;110037;1272;138744;-74
2023/06/18 22:00:08;;;;;;;10.60;9.60;;;;;;;24.44;42.97;100022.09;110246;1269;139852;-76
2023/06/18 22:02:38;;;;;;;9.90;9.00;;;;;;;24.41;42.97;100025.91;110412;1276;22103;-76
2023/06/18 22:05:06;;;;;;;9.40;8.20;;;;;;;24.32;43.16;100039.08;110171;1273;137872;-76
2023/06/18 22:07:34;;;;;;;8.80;7.70;;;;;;;24.25;43.56;100039.59;110275;1275;22207;-75
2023/06/18 22:10:01;;;;;;;8.70;7.90;;;;;;;24.23;43.96;100038.35;110178;1277;137911;-75
2023/06/18 22:12:29;;;;;;;8.70;7.90;;;;;;;24.22;44.07;100035.53;110066;1272;138862;-75
2023/06/18 22:14:56;;;;;;;9.60;8.80;;;;;;;24.21;44.33;100034.73;110347;1276;22183;-74
2023/06/18 22:17:24;;;;;;;10.00;9.20;;;;;;;24.25;44.47;100035.11;110242;1268;139006;-73
2023/06/18 22:19:51;;;;;;;10.50;9.50;;;;;;;24.18;44.75;100033.33;110298;1270;22978;-75
2023/06/18 22:22:19;;;;;;;11.50;9.40;;;;;;;24.10;45.02;100032.58;110134;1255;138627;-74
2023/06/18 22:24:47;;;;;;;8.90;8.10;;;;;;;24.08;45.14;100034.29;110167;1269;138495;-71
2023/06/18 22:27:15;;;;;;;9.10;8.10;;;;;;;24.07;45.38;100036.60;110355;1276;22466;-74
2023/06/18 22:29:42;;;;;;;8.30;7.70;;;;;;;23.99;46.01;100034.48;110218;1270;138092;-74
2023/06/18 22:32:10;;;;;;;9.00;8.30;;;;;;;23.98;46.17;100034.16;110215;1276;138550;-75
2023/06/18 22:34:37;;;;;;;8.60;8.00;;;;;;;23.96;46.21;100035.60;110359;1254;22167;-74
2023/06/18 22:37:09;;;;;;;9.50;8.60;;;;;;;23.96;46.18;100033.64;110246;1271;139115;-77
2023/06/18 22:39:36;;;;;;;10.20;9.40;;;;;;;23.97;46.45;100032.20;110257;1267;22122;-71
2023/06/18 22:42:04;;;;;;;11.20;9.30;;;;;;;23.91;47.36;100038.02;110158;1271;139341;-75
2023/06/18 22:44:31;;;;;;;9.40;8.60;;;;;;;23.88;47.32;100040.55;110183;1270;138329;-74
2023/06/18 22:46:59;;;;;;;8.90;8.20;;;;;;;23.83;47.27;100043.48;110350;1269;23053;-73
2023/06/18 22:49:26;;;;;;;8.10;7.50;;;;;;;23.88;47.19;100040.11;110264;1274;138075;-75
2023/06/18 22:51:58;;;;;;;10.70;9.60;;;;;;;23.95;47.25;100037.18;110323;1270;23027;-73
2023/06/18 22:54:26;;;;;;;9.10;8.20;;;;;;;24.01;46.97;100035.61;110167;1276;138683;-74
2023/06/18 22:56:53;;;;;;;10.80;8.70;;;;;;;23.97;46.88;100027.73;110078;1269;138927;-73
2023/06/18 22:59:21;;;;;;;8.50;7.60;;;;;;;24.02;46.82;100036.57;110399;1268;22389;-74
2023/06/18 23:01:48;;;;;;;8.80;8.00;;;;;;;24.01;46.91;100036.80;110217;1270;139268;-74
2023/06/18 23:04:15;;;;;;;8.20;7.70;;;;;;;24.04;46.84;100032.69;110243;1257;137777;-76
2023/06/18 23:06:43;;;;;;;9.20;8.20;;;;;;;23.99;46.96;100034.48;110329;1270;22217;-73
2023/06/18 23:09:12;;;;;;;9.30;8.40;;;;;;;23.94;47.21;100034.73;110192;1275;137973;-73
2023/06/18 23:11:39;;;;;;;9.00;8.40;;;;;;;23.92;47.58;100036.27;110254;1270;22176;-74
2023/06/18 23:14:07;;;;;;;8.40;7.70;;;;;;;23.86;47.87;100036.80;110217;1271;138931;-72
2023/06/18 23:16:34;;;;;;;9.80;8.90;;;;;;;23.87;47.88;100035.33;110137;1274;138865;-74
2023/06/18 23:19:02;;;;;;;8.30;7.60;;;;;;;23.89;47.66;100029.01;110314;1269;23000;-75
2023/06/18 23:21:29;;;;;;;10.60;8.60;;;;;;;23.86;47.87;100030.55;110238;1276;137683;-76
2023/06/18 23:24:12;;;;;;;8.70;7.90;;;;;;;23.76;48.20;100032.30;110235;1258;138354;-76
2023/06/18 23:26:40;;;;;;;7.70;7.10;;;;;;;23.81;48.21;100030.70;110321;1259;22429;-71
2023/06/18 23:29:11;;;;;;;8.30;7.60;;;;;;;23.89;48.06;100029.55;110070;1274;138223;-73
2023/06/18 23:31:39;;;;;;;8.90;8.30;;;;;;;23.90;48.09;100031.94;110297;1270;22396;-74
2023/06/18 23:34:07;;;;;;;8.00;7.40;;;;;;;23.85;47.94;100031.32;110362;1274;137978;-75
2023/06/18 23:36:35;;;;;;;8.90;8.20;;;;;;;23.88;47.99;100032.44;110291;1269;138793;-76